Time;durP1;ratioP1;P1;durP2;ratioP2;P2;SDS_P1;SDS_P2;PMS_P1;PMS_P2;Temp;Humidity;BMP_temperature;BMP_pressure;BME280_temperature;BME280_humidity;BME280_pressure;Samples;Min_cycle;Max_cycle;Signal;HPM_P1;HPM_P2
2024/03/04 00:00:39;;;;;;;8.70;2.00;;;;;;;;;;5053646;28;20060;-71
2024/03/04 00:03:43;;;;;;;13.65;2.58;;;13.10;99.90;;;;;;5054021;28;20037;-71
2024/03/04 00:06:47;;;;;;;7.72;2.22;;;;;;;;;;5053509;28;20044;-70
2024/03/04 00:09:51;;;;;;;13.65;2.35;;;14.30;99.90;;;;;;5053548;28;20239;-71
2024/03/04 00:12:56;;;;;;;11.77;3.33;;;12.80;99.90;;;;;;5053647;28;20048;-71
2024/03/04 00:16:02;;;;;;;20.25;4.10;;;;;;;;;;5053802;28;20052;-71
2024/03/04 00:19:06;;;;;;;17.88;3.00;;;;;;;;;;5053322;28;20500;-71
2024/03/04 00:22:11;;;;;;;19.40;4.22;;;;;;;;;;5053344;28;20393;-71
2024/03/04 00:25:18;;;;;;;8.82;2.50;;;;;;;;;;5053087;28;20044;-71
2024/03/04 00:28:22;;;;;;;9.88;2.40;;;;;;;;;;5053294;28;20052;-71
2024/03/04 00:31:28;;;;;;;11.15;2.17;;;;;;;;;;5052781;28;20045;-72
2024/03/04 00:34:32;;;;;;;11.05;2.38;;;;;;;;;;5053717;28;20421;-71
2024/03/04 00:37:41;;;;;;;11.50;3.65;;;13.80;99.90;;;;;;5052697;28;20385;-72
2024/03/04 00:40:46;;;;;;;9.60;2.75;;;;;;;;;;5053375;28;20047;-72
2024/03/04 00:43:50;;;;;;;5.50;2.00;;;;;;;;;;5053450;28;20029;-72
2024/03/04 00:46:54;;;;;;;10.30;1.70;;;12.40;99.90;;;;;;5053360;28;20489;-72
2024/03/04 00:49:58;;;;;;;7.25;1.70;;;;;;;;;;5053125;28;20056;-72
2024/03/04 00:53:04;;;;;;;9.10;1.75;;;12.40;99.90;;;;;;5052944;28;20037;-72
2024/03/04 00:56:07;;;;;;;8.32;2.75;;;12.30;99.90;;;;;;5052985;28;20047;-71
2024/03/04 00:59:12;;;;;;;14.82;2.63;;;;;;;;;;5052688;28;20052;-71
2024/03/04 01:02:16;;;;;;;8.68;2.50;;;12.40;99.90;;;;;;5051809;28;20504;-71
2024/03/04 01:05:20;;;;;;;7.65;1.77;;;12.40;99.90;;;;;;5051777;28;20044;-71
2024/03/04 01:08:24;;;;;;;11.48;2.42;;;12.30;99.90;;;;;;5052632;28;20095;-71
2024/03/04 01:11:28;;;;;;;8.10;1.98;;;12.40;99.90;;;;;;5052020;28;20104;-71
2024/03/04 01:14:32;;;;;;;10.68;1.65;;;12.40;99.90;;;;;;5052253;28;20114;-71
2024/03/04 01:17:37;;;;;;;6.00;1.77;;;12.20;99.90;;;;;;5052346;28;20512;-71
2024/03/04 01:20:41;;;;;;;12.02;1.98;;;12.20;99.90;;;;;;5051987;28;20044;-71
2024/03/04 01:23:46;;;;;;;5.95;1.70;;;12.20;99.90;;;;;;5052743;28;20503;-71
2024/03/04 01:26:51;;;;;;;10.65;1.85;;;12.30;99.90;;;;;;5041097;28;20051;-71
2024/03/04 01:29:55;;;;;;;9.20;2.20;;;12.10;99.90;;;;;;5051527;28;20056;-71
2024/03/04 01:32:59;;;;;;;9.65;2.08;;;12.00;99.90;;;;;;5052489;28;20044;-71
2024/03/04 01:36:04;;;;;;;6.10;1.83;;;11.90;99.90;;;;;;5052720;28;20504;-71
2024/03/04 01:39:08;;;;;;;11.45;1.92;;;11.70;99.90;;;;;;5051942;28;20508;-73
2024/03/04 01:42:12;;;;;;;7.20;1.73;;;12.30;99.90;;;;;;5052479;28;20052;-72
2024/03/04 01:45:25;;;;;;;10.80;2.03;;;11.60;99.90;;;;;;5052448;28;20044;-72
2024/03/04 01:48:30;;;;;;;7.65;1.80;;;11.80;99.90;;;;;;5052040;28;20055;-72
2024/03/04 01:51:34;;;;;;;11.43;1.48;;;11.70;99.90;;;;;;5051514;28;20496;-72
2024/03/04 01:54:40;;;;;;;8.05;1.30;;;11.70;99.90;;;;;;5051490;28;20040;-72
2024/03/04 01:57:45;;;;;;;8.93;1.90;;;;;;;;;;5051743;28;20531;-72
2024/03/04 02:00:49;;;;;;;9.68;1.50;;;13.30;99.90;;;;;;5051052;28;20489;-72
2024/03/04 02:03:53;;;;;;;8.45;1.77;;;11.90;99.90;;;;;;5051060;28;20052;-72
2024/03/04 02:06:59;;;;;;;6.18;1.60;;;11.40;99.90;;;;;;5051378;28;20044;-72
2024/03/04 02:10:05;;;;;;;8.52;1.77;;;11.90;99.90;;;;;;5051036;28;20048;-72
2024/03/04 02:13:09;;;;;;;6.90;1.50;;;11.60;99.90;;;;;;5051743;28;20044;-71
2024/03/04 02:16:13;;;;;;;6.20;1.95;;;11.90;99.90;;;;;;5050920;28;20432;-72
2024/03/04 02:19:19;;;;;;;12.07;2.13;;;13.60;99.90;;;;;;5051567;28;20040;-71
2024/03/04 02:22:26;;;;;;;5.80;1.58;;;11.80;99.90;;;;;;5051174;28;20114;-72
2024/03/04 02:25:35;;;;;;;5.97;2.03;;;11.90;99.90;;;;;;5050506;28;20536;-71
2024/03/04 02:28:39;;;;;;;8.07;1.42;;;13.40;99.90;;;;;;5050512;28;20044;-72
2024/03/04 02:31:43;;;;;;;12.70;2.25;;;11.80;99.90;;;;;;5050624;28;20043;-72
2024/03/04 02:34:48;;;;;;;7.15;1.67;;;13.10;99.90;;;;;;5051142;28;20040;-72
2024/03/04 02:37:52;;;;;;;5.68;1.70;;;11.70;99.90;;;;;;5049955;28;20048;-71
2024/03/04 02:40:59;;;;;;;7.13;1.85;;;11.00;99.90;;;;;;5050770;28;20040;-72
2024/03/04 02:44:04;;;;;;;7.45;1.83;;;11.70;99.90;;;;;;5050589;28;20044;-73
2024/03/04 02:47:08;;;;;;;8.27;1.95;;;13.60;99.90;;;;;;5051461;28;20131;-72
2024/03/04 02:50:12;;;;;;;7.57;1.60;;;11.30;99.90;;;;;;5051372;28;20052;-73
2024/03/04 02:53:16;;;;;;;3.83;1.40;;;12.90;99.90;;;;;;5050760;28;20392;-73
2024/03/04 02:56:20;;;;;;;7.45;1.83;;;11.30;99.90;;;;;;5051494;28;20048;-72
2024/03/04 02:59:24;;;;;;;4.38;1.75;;;13.90;99.90;;;;;;5050851;28;20036;-72
2024/03/04 03:02:28;;;;;;;5.55;1.52;;;12.00;99.90;;;;;;5050987;28;20059;-72
2024/03/04 03:05:32;;;;;;;5.90;2.42;;;13.20;99.90;;;;;;5050914;28;20071;-71
2024/03/04 03:08:36;;;;;;;7.28;1.85;;;13.40;99.90;;;;;;5050563;28;20076;-73
2024/03/04 03:11:40;;;;;;;4.70;1.90;;;13.10;99.90;;;;;;5049578;28;20044;-72
2024/03/04 03:14:44;;;;;;;3.75;1.63;;;11.50;99.90;;;;;;5050609;28;20051;-72
2024/03/04 03:17:48;;;;;;;7.88;1.60;;;11.50;99.90;;;;;;5051023;28;20052;-72
2024/03/04 03:20:52;;;;;;;4.88;1.30;;;11.50;99.90;;;;;;5051079;28;20044;-72
2024/03/04 03:23:56;;;;;;;4.03;1.30;;;11.50;99.90;;;;;;5050759;28;20044;-72
2024/03/04 03:27:00;;;;;;;5.50;1.23;;;11.50;99.90;;;;;;5049776;28;20044;-71
2024/03/04 03:30:06;;;;;;;3.95;0.93;;;11.60;99.90;;;;;;5053359;28;20051;-72
2024/03/04 03:33:11;;;;;;;4.30;1.10;;;11.10;99.90;;;;;;5053409;28;20048;-72
2024/03/04 03:36:15;;;;;;;5.22;1.17;;;13.60;99.90;;;;;;5054305;28;20048;-73
2024/03/04 03:39:19;;;;;;;4.78;0.95;;;11.40;99.90;;;;;;5053936;28;20052;-73
2024/03/04 03:42:23;;;;;;;5.18;1.30;;;11.00;99.90;;;;;;5054142;28;20112;-73
2024/03/04 03:45:27;;;;;;;2.92;0.90;;;;;;;;;;5054127;28;20048;-73
2024/03/04 03:48:31;;;;;;;4.32;1.00;;;;;;;;;;5054011;28;20420;-73
2024/03/04 03:51:37;;;;;;;2.88;1.20;;;11.70;99.90;;;;;;5054243;28;20366;-71
2024/03/04 03:54:41;;;;;;;3.47;0.80;;;12.90;99.90;;;;;;5054145;28;20106;-72
2024/03/04 03:57:45;;;;;;;5.90;1.33;;;11.50;99.90;;;;;;5053705;28;20035;-72
2024/03/04 04:00:49;;;;;;;5.25;1.20;;;11.40;99.90;;;;;;5053650;28;20064;-73
2024/03/04 04:03:53;;;;;;;6.40;1.10;;;13.00;99.90;;;;;;5053832;28;20048;-72
2024/03/04 04:06:57;;;;;;;4.10;1.08;;;11.10;99.90;;;;;;5053760;28;20048;-72
2024/03/04 04:10:04;;;;;;;8.27;1.70;;;11.40;99.90;;;;;;5053439;28;20045;-72
2024/03/04 04:13:08;;;;;;;8.13;1.30;;;11.00;99.90;;;;;;5053717;28;20043;-72
2024/03/04 04:16:12;;;;;;;5.50;1.67;;;11.40;99.90;;;;;;5053321;28;20036;-72
2024/03/04 04:19:16;;;;;;;8.15;1.33;;;11.50;99.90;;;;;;5052399;28;20040;-72
2024/03/04 04:22:20;;;;;;;3.67;1.08;;;11.30;99.90;;;;;;5053252;28;20052;-72
2024/03/04 04:25:24;;;;;;;2.92;1.08;;;;;;;;;;5053370;28;20052;-72
2024/03/04 04:28:28;;;;;;;6.80;2.20;;;10.90;99.90;;;;;;5053306;28;20108;-72
2024/03/04 04:31:32;;;;;;;4.32;1.50;;;11.30;99.90;;;;;;5053131;28;20066;-72
2024/03/04 04:34:36;;;;;;;11.05;3.00;;;11.30;99.90;;;;;;5053087;28;20116;-72
2024/03/04 04:37:43;;;;;;;9.38;3.97;;;11.30;99.90;;;;;;5053081;28;20055;-72
2024/03/04 04:40:50;;;;;;;8.63;3.72;;;11.70;99.90;;;;;;5053052;28;20052;-72
2024/03/04 04:43:54;;;;;;;8.55;4.20;;;11.20;99.90;;;;;;5052986;28;20059;-72
2024/03/04 04:46:58;;;;;;;8.45;3.80;;;11.20;99.90;;;;;;5053171;28;20040;-72
2024/03/04 04:50:04;;;;;;;9.35;4.15;;;12.80;99.90;;;;;;5052116;28;20421;-72
2024/03/04 04:53:09;;;;;;;9.35;4.55;;;12.80;99.90;;;;;;5053177;28;20032;-72
2024/03/04 04:56:17;;;;;;;9.38;4.88;;;11.00;99.90;;;;;;5052589;28;20052;-72
2024/03/04 04:59:21;;;;;;;9.75;4.10;;;11.10;99.90;;;;;;5052556;28;20052;-72
2024/03/04 05:02:25;;;;;;;8.32;5.20;;;10.90;99.90;;;;;;5052713;28;20055;-72
2024/03/04 05:05:29;;;;;;;6.80;3.60;;;11.10;99.90;;;;;;5052594;28;20043;-72
2024/03/04 05:08:33;;;;;;;9.05;2.40;;;11.10;99.90;;;;;;5052170;28;20052;-72
2024/03/04 05:11:37;;;;;;;8.45;2.40;;;11.10;99.90;;;;;;5051471;28;20044;-71
2024/03/04 05:14:41;;;;;;;4.07;1.75;;;13.00;99.90;;;;;;5052270;28;20044;-71
2024/03/04 05:17:46;;;;;;;3.38;1.13;;;13.20;99.90;;;;;;5052126;28;20039;-71
2024/03/04 05:20:51;;;;;;;4.60;1.27;;;11.20;99.90;;;;;;5052406;28;20051;-71
2024/03/04 05:23:55;;;;;;;5.32;1.33;;;12.40;99.90;;;;;;5052299;28;20040;-71
2024/03/04 05:26:59;;;;;;;4.70;1.08;;;13.00;99.90;;;;;;5051415;28;20044;-72
2024/03/04 05:30:03;;;;;;;1.90;0.68;;;12.70;99.90;;;;;;5051789;28;20055;-71
2024/03/04 05:33:08;;;;;;;0.95;0.68;;;11.00;99.90;;;;;;5051942;28;20044;-72
2024/03/04 05:36:12;;;;;;;1.15;0.50;;;11.00;99.90;;;;;;5051807;28;20044;-72
2024/03/04 05:39:21;;;;;;;3.22;0.70;;;10.90;99.90;;;;;;5051015;28;20381;-72
2024/03/04 05:42:25;;;;;;;3.00;0.60;;;9.50;99.90;;;;;;5051980;28;20048;-72
2024/03/04 05:45:29;;;;;;;1.33;0.50;;;9.30;99.90;;;;;;5051963;28;20033;-72
2024/03/04 05:48:33;;;;;;;2.65;0.90;;;9.90;99.90;;;;;;5051701;28;20184;-72
2024/03/04 05:51:43;;;;;;;2.70;0.85;;;9.50;99.90;;;;;;5051097;28;20049;-73
2024/03/04 05:54:47;;;;;;;2.22;1.50;;;10.60;99.90;;;;;;5052074;28;20036;-72
2024/03/04 05:57:52;;;;;;;2.00;0.90;;;11.00;99.90;;;;;;5051918;28;20512;-71
2024/03/04 06:00:56;;;;;;;1.58;0.77;;;8.90;99.90;;;;;;5051540;28;20044;-70
2024/03/04 06:04:00;;;;;;;2.00;0.98;;;9.70;99.90;;;;;;5051506;28;20044;-73
2024/03/04 06:07:04;;;;;;;1.17;0.80;;;10.20;99.90;;;;;;5051783;28;20402;-72
2024/03/04 06:10:09;;;;;;;2.45;0.80;;;10.00;99.90;;;;;;5051740;28;20060;-72
2024/03/04 06:13:13;;;;;;;2.95;1.17;;;10.30;99.90;;;;;;5052530;28;20040;-72
2024/03/04 06:16:17;;;;;;;1.73;0.80;;;8.60;99.90;;;;;;5051528;28;20048;-72
2024/03/04 06:19:21;;;;;;;2.85;0.70;;;8.80;99.90;;;;;;5051726;28;20038;-71
2024/03/04 06:22:25;;;;;;;5.72;0.80;;;8.40;99.90;;;;;;5050694;28;20052;-71
2024/03/04 06:25:28;;;;;;;3.40;0.80;;;8.80;99.90;;;;;;5051155;28;20033;-71
2024/03/04 06:28:34;;;;;;;8.93;1.00;;;9.80;99.90;;;;;;5051152;28;20060;-68
2024/03/04 06:31:39;;;;;;;3.60;0.93;;;10.20;99.90;;;;;;5051442;28;20056;-69
2024/03/04 06:34:42;;;;;;;7.47;0.90;;;9.10;99.90;;;;;;5051428;28;20112;-68
2024/03/04 06:37:47;;;;;;;4.68;1.17;;;;;;;;;;5051168;28;20045;-69
2024/03/04 06:40:52;;;;;;;5.53;1.25;;;;;;;;;;5051128;28;20033;-69
2024/03/04 06:43:56;;;;;;;5.32;1.27;;;12.60;99.90;;;;;;5050948;28;20041;-69
2024/03/04 06:47:01;;;;;;;4.60;1.30;;;;;;;;;;5050394;28;20040;-69
2024/03/04 06:50:05;;;;;;;3.17;1.17;;;8.70;99.90;;;;;;5050809;28;20041;-69
2024/03/04 06:53:09;;;;;;;3.00;0.95;;;9.90;99.90;;;;;;5051162;28;20044;-69
2024/03/04 06:56:13;;;;;;;7.63;1.20;;;;;;;;;;5050277;28;20052;-70
2024/03/04 06:59:18;;;;;;;6.78;1.50;;;9.60;99.90;;;;;;5051204;28;20374;-67
2024/03/04 07:02:22;;;;;;;5.68;1.35;;;8.80;99.90;;;;;;5051630;28;20060;-68
2024/03/04 07:05:25;;;;;;;5.68;2.15;;;8.30;99.90;;;;;;5054986;28;20037;-72
2024/03/04 07:08:29;;;;;;;6.40;1.98;;;9.60;99.90;;;;;;5055196;28;20041;-70
2024/03/04 07:11:33;;;;;;;2.97;1.65;;;8.60;99.90;;;;;;5054658;28;20060;-70
2024/03/04 07:14:37;;;;;;;2.25;1.30;;;10.10;99.90;;;;;;5055563;28;20675;-70
2024/03/04 07:17:41;;;;;;;3.13;1.40;;;10.00;99.90;;;;;;5055937;28;20048;-71
2024/03/04 07:20:45;;;;;;;3.53;1.45;;;10.40;99.90;;;;;;5054581;28;20048;-69
2024/03/04 07:23:49;;;;;;;4.22;1.10;;;10.20;99.90;;;;;;5055235;28;20392;-70
2024/03/04 07:26:53;;;;;;;5.03;2.10;;;12.20;99.90;;;;;;5054723;28;20067;-72
2024/03/04 07:29:57;;;;;;;4.53;2.13;;;12.70;99.90;;;;;;5055188;28;20055;-73
2024/03/04 07:33:01;;;;;;;5.43;2.92;;;10.40;99.90;;;;;;5054978;28;20143;-69
2024/03/04 07:36:05;;;;;;;6.65;3.53;;;10.60;99.90;;;;;;5054711;28;20056;-69
2024/03/04 07:39:10;;;;;;;3.60;2.80;;;11.40;99.90;;;;;;5054700;28;20040;-71
2024/03/04 07:42:14;;;;;;;7.95;2.85;;;12.80;99.90;;;;;;5053832;28;20047;-73
2024/03/04 07:45:18;;;;;;;5.38;1.65;;;10.80;99.90;;;;;;5054647;28;20496;-73
2024/03/04 07:48:23;;;;;;;11.50;2.45;;;10.90;99.90;;;;;;5054499;28;20155;-74
2024/03/04 07:51:31;;;;;;;6.10;1.88;;;11.00;99.90;;;;;;5054752;28;20072;-74
2024/03/04 07:54:35;;;;;;;7.18;2.20;;;10.90;99.90;;;;;;5054490;28;20043;-72
2024/03/04 07:57:40;;;;;;;9.48;3.20;;;11.00;99.90;;;;;;5053632;28;20036;-73
2024/03/04 08:00:44;;;;;;;7.22;1.60;;;11.00;99.90;;;;;;5054458;28;20048;-73
2024/03/04 08:03:47;;;;;;;3.70;1.50;;;11.10;99.90;;;;;;5055319;28;20040;-73
2024/03/04 08:06:52;;;;;;;6.90;2.67;;;11.10;99.90;;;;;;5054588;28;20055;-70
2024/03/04 08:09:56;;;;;;;4.03;2.80;;;11.30;99.90;;;;;;5054360;28;20052;-73
2024/03/04 08:13:00;;;;;;;6.72;2.42;;;11.00;99.90;;;;;;5053982;28;20500;-72
2024/03/04 08:16:04;;;;;;;5.45;2.13;;;12.70;99.90;;;;;;5053647;28;20507;-75
2024/03/04 08:19:11;;;;;;;4.30;1.60;;;13.30;99.90;;;;;;5053198;28;20123;-72
2024/03/04 08:22:14;;;;;;;6.60;1.60;;;11.50;99.90;;;;;;5056486;28;20048;-78
2024/03/04 08:25:18;;;;;;;5.72;1.85;;;11.30;99.90;;;;;;5055573;28;20052;-75
2024/03/04 08:28:23;;;;;;;5.13;2.15;;;11.40;99.90;;;;;;5056065;28;20048;-77
2024/03/04 08:31:28;;;;;;;5.00;1.88;;;11.50;99.90;;;;;;5055714;28;20044;-78
2024/03/04 08:34:32;;;;;;;4.85;2.13;;;11.60;99.90;;;;;;5056431;28;20396;-77
2024/03/04 08:37:36;;;;;;;6.00;4.15;;;11.60;99.90;;;;;;5056268;28;20036;-75
2024/03/04 08:40:40;;;;;;;10.82;3.88;;;11.60;99.90;;;;;;5053763;28;20048;-78
2024/03/04 08:43:44;;;;;;;10.52;3.42;;;11.20;99.90;;;;;;5053810;28;20044;-74
2024/03/04 08:46:48;;;;;;;9.48;3.70;;;11.50;99.90;;;;;;5056522;28;20055;-73
2024/03/04 08:49:52;;;;;;;8.38;3.75;;;11.50;99.90;;;;;;5053290;28;20064;-74
2024/03/04 08:52:56;;;;;;;6.60;2.28;;;11.40;99.90;;;;;;5053496;28;20155;-71
2024/03/04 08:56:01;;;;;;;7.90;2.78;;;11.20;99.90;;;;;;5052112;28;20052;-73
2024/03/04 08:59:05;;;;;;;5.28;2.83;;;11.50;99.90;;;;;;5052365;28;20401;-74
2024/03/04 09:02:10;;;;;;;3.00;1.63;;;11.60;99.90;;;;;;5052381;28;20056;-73
2024/03/04 09:05:14;;;;;;;11.10;2.20;;;11.50;99.90;;;;;;5051598;28;20048;-73
2024/03/04 09:08:18;;;;;;;5.05;2.65;;;11.30;99.90;;;;;;5051375;28;20047;-73
2024/03/04 09:11:24;;;;;;;5.95;1.88;;;11.70;99.90;;;;;;5051679;28;20044;-73
2024/03/04 09:14:29;;;;;;;5.47;1.85;;;11.80;99.90;;;;;;5052061;28;20393;-72
2024/03/04 09:17:33;;;;;;;6.28;2.95;;;13.40;99.90;;;;;;5053130;28;20068;-73
2024/03/04 09:20:37;;;;;;;4.72;2.40;;;11.80;99.90;;;;;;5054223;28;20064;-72
2024/03/04 09:23:41;;;;;;;5.00;2.17;;;11.80;99.90;;;;;;5053344;28;20044;-71
2024/03/04 09:26:48;;;;;;;5.88;1.90;;;12.00;99.90;;;;;;5052470;28;20040;-74
2024/03/04 09:29:52;;;;;;;4.35;2.17;;;11.90;99.90;;;;;;5052390;28;20056;-75
2024/03/04 09:32:56;;;;;;;5.85;2.08;;;;;;;;;;5053839;28;20067;-73
2024/03/04 09:36:01;;;;;;;3.22;2.10;;;;;;;;;;5052676;28;20040;-70
2024/03/04 09:39:05;;;;;;;5.88;2.40;;;;;;;;;;5052672;28;20044;-70
2024/03/04 09:42:10;;;;;;;8.68;2.30;;;13.10;99.60;;;;;;5052424;28;20029;-72
2024/03/04 09:45:17;;;;;;;6.03;2.00;;;13.10;99.40;;;;;;5052599;28;20445;-73
2024/03/04 09:48:25;;;;;;;3.33;1.70;;;13.20;99.60;;;;;;5053249;28;20044;-71
2024/03/04 09:51:31;;;;;;;4.00;2.10;;;13.00;99.70;;;;;;5052375;28;20080;-70
2024/03/04 09:54:37;;;;;;;5.57;1.90;;;11.20;98.10;;;;;;5052290;28;20115;-71
2024/03/04 09:57:41;;;;;;;2.45;1.50;;;;;;;;;;5051933;28;20048;-72
2024/03/04 10:00:46;;;;;;;2.83;1.48;;;;;;;;;;5052612;28;20511;-69
2024/03/04 10:03:51;;;;;;;5.50;1.45;;;13.90;96.60;;;;;;5051966;28;20497;-71
2024/03/04 10:06:55;;;;;;;4.03;1.77;;;;;;;;;;5052579;28;20055;-73
2024/03/04 10:10:00;;;;;;;3.15;1.90;;;;;;;;;;5052129;28;20048;-73
2024/03/04 10:13:10;;;;;;;5.00;1.48;;;14.90;96.90;;;;;;5051223;28;20053;-71
2024/03/04 10:16:15;;;;;;;6.78;1.90;;;;;;;;;;5051804;28;20039;-72
2024/03/04 10:19:20;;;;;;;5.35;1.50;;;;;;;;;;5052019;28;20037;-70
2024/03/04 10:22:24;;;;;;;6.85;1.88;;;;;;;;;;5052157;28;20044;-72
2024/03/04 10:25:29;;;;;;;5.93;1.80;;;;;;;;;;5051902;28;20430;-71
2024/03/04 10:28:40;;;;;;;2.78;1.20;;;15.70;93.90;;;;;;5038986;28;20037;-69
2024/03/04 10:31:51;;;;;;;7.68;1.85;;;15.80;93.20;;;;;;5050975;28;20060;-69
2024/03/04 10:35:04;;;;;;;5.13;1.73;;;15.70;93.40;;;;;;5051424;28;20063;-70
2024/03/04 10:38:09;;;;;;;3.15;1.48;;;;;;;;;;5051338;28;20048;-69
2024/03/04 10:41:26;;;;;;;8.93;2.00;;;15.80;92.70;;;;;;5052033;28;20041;-71
2024/03/04 10:44:31;;;;;;;3.97;1.60;;;;;;;;;;5051497;28;20037;-73
2024/03/04 10:47:42;;;;;;;6.78;1.60;;;16.30;92.80;;;;;;5050779;28;20481;-72
2024/03/04 10:50:47;;;;;;;3.97;1.42;;;;;;;;;;5051148;28;20075;-72
2024/03/04 10:53:51;;;;;;;1.73;1.02;;;;;;;;;;5051212;28;20037;-74
2024/03/04 10:56:59;;;;;;;3.55;1.45;;;15.50;92.70;;;;;;5052076;28;20473;-74
2024/03/04 11:00:10;;;;;;;5.47;1.55;;;15.50;93.00;;;;;;5051515;28;20047;-73
2024/03/04 11:03:17;;;;;;;3.35;1.27;;;15.80;93.60;;;;;;5052306;28;20055;-69
2024/03/04 11:06:24;;;;;;;8.75;1.90;;;15.90;92.20;;;;;;5050902;28;20048;-71
2024/03/04 11:09:28;;;;;;;3.88;1.23;;;16.00;92.20;;;;;;5050379;28;20052;-77
2024/03/04 11:12:34;;;;;;;6.82;1.17;;;15.90;91.30;;;;;;5038955;28;20051;-72
2024/03/04 11:15:48;;;;;;;6.40;1.52;;;17.70;92.20;;;;;;5053826;28;20044;-74
2024/03/04 11:19:22;;;;;;;6.68;1.27;;;16.10;91.70;;;;;;5050960;28;20052;-77
2024/03/04 11:22:27;;;;;;;3.95;0.70;;;;;;;;;;5052124;28;20044;-72
2024/03/04 11:25:31;;;;;;;6.70;1.15;;;;;;;;;;5051606;28;20048;-73
2024/03/04 11:28:37;;;;;;;2.25;0.88;;;15.70;91.40;;;;;;5051593;28;20041;-74
2024/03/04 11:31:59;;;;;;;3.67;1.50;;;15.80;91.80;;;;;;5051951;28;20063;-71
2024/03/04 11:35:10;;;;;;;2.67;1.00;;;17.50;92.30;;;;;;5052285;28;20043;-71
2024/03/04 11:38:14;;;;;;;3.57;1.23;;;;;;;;;;5052174;28;20076;-74
2024/03/04 11:41:44;;;;;;;3.75;1.02;;;16.20;90.70;;;;;;5050849;28;20033;-73
2024/03/04 11:44:48;;;;;;;4.10;0.70;;;;;;;;;;5051771;28;20048;-73
2024/03/04 11:47:52;;;;;;;4.22;1.08;;;;;;;;;;5051749;28;20037;-74
2024/03/04 11:50:57;;;;;;;2.25;0.88;;;;;;;;;;5054643;28;20052;-75
2024/03/04 11:54:05;;;;;;;6.70;1.90;;;16.50;90.30;;;;;;5056607;28;20036;-73
2024/03/04 11:57:10;;;;;;;6.18;1.67;;;;;;;;;;5057354;28;20048;-72
2024/03/04 12:00:16;;;;;;;6.22;1.00;;;15.40;87.80;;;;;;5054116;28;20064;-74
2024/03/04 12:03:20;;;;;;;4.90;0.90;;;;;;;;;;5054787;28;20044;-73
2024/03/04 12:06:24;;;;;;;5.68;1.00;;;;;;;;;;5053214;28;20351;-74
2024/03/04 12:09:29;;;;;;;3.13;0.75;;;;;;;;;;5053945;28;20037;-74
2024/03/04 12:12:33;;;;;;;6.00;0.93;;;;;;;;;;5054721;28;20033;-73
2024/03/04 12:15:41;;;;;;;2.85;0.80;;;;;;;;;;5055132;28;20033;-74
2024/03/04 12:18:49;;;;;;;3.88;1.00;;;16.40;89.20;;;;;;5054639;28;20041;-73
2024/03/04 12:21:54;;;;;;;9.68;1.80;;;;;;;;;;5055312;28;20060;-72
2024/03/04 12:25:11;;;;;;;6.32;0.75;;;16.60;88.50;;;;;;5054840;28;20033;-73
2024/03/04 12:28:19;;;;;;;2.90;0.60;;;16.60;84.70;;;;;;5054269;28;20048;-72
2024/03/04 12:31:23;;;;;;;2.13;1.08;;;;;;;;;;5054041;28;20456;-72
2024/03/04 12:34:29;;;;;;;2.88;0.80;;;;;;;;;;5053399;28;20542;-73
2024/03/04 12:37:35;;;;;;;6.47;1.48;;;;;;;;;;5053292;28;20045;-72
2024/03/04 12:40:39;;;;;;;2.38;0.80;;;;;;;;;;5054378;28;20104;-74
2024/03/04 12:43:48;;;;;;;5.32;1.10;;;;;;;;;;5054378;28;20481;-72
2024/03/04 12:46:52;;;;;;;11.50;1.35;;;16.20;89.10;;;;;;5054353;28;20029;-74
2024/03/04 12:49:57;;;;;;;9.05;1.15;;;;;;;;;;5054773;28;20040;-74
2024/03/04 12:53:01;;;;;;;2.60;0.80;;;;;;;;;;5055246;28;20081;-74
2024/03/04 12:56:06;;;;;;;6.13;1.10;;;;;;;;;;5055531;28;20060;-75
2024/03/04 12:59:10;;;;;;;3.58;1.20;;;;;;;;;;5054808;28;20041;-74
2024/03/04 13:02:14;;;;;;;7.18;1.17;;;;;;;;;;5054549;28;20040;-74
2024/03/04 13:05:19;;;;;;;7.18;1.30;;;;;;;;;;5054479;28;20049;-76
2024/03/04 13:08:23;;;;;;;17.70;2.85;;;;;;;;;;5061956;28;20037;-76
2024/03/04 13:11:27;;;;;;;4.45;0.95;;;;;;;;;;5057938;28;20123;-81
2024/03/04 13:14:33;;;;;;;2.50;1.00;;;;;;;;;;5057647;28;20041;-80
2024/03/04 13:17:45;;;;;;;4.80;1.80;;;16.50;93.80;;;;;;5053202;28;20045;-72
2024/03/04 13:20:50;;;;;;;4.30;1.60;;;;;;;;;;5052378;28;20044;-72
2024/03/04 13:23:58;;;;;;;2.53;1.10;;;;;;;;;;5053159;28;20033;-71
2024/03/04 13:27:04;;;;;;;6.43;3.97;;;;;;;;;;5052491;28;20041;-71
2024/03/04 13:30:10;;;;;;;6.57;2.20;;;14.90;93.90;;;;;;5052982;28;20057;-71
2024/03/04 13:33:14;;;;;;;2.10;0.80;;;;;;;;;;5052783;28;20040;-71
2024/03/04 13:36:19;;;;;;;2.85;0.70;;;;;;;;;;5052946;28;20049;-73
2024/03/04 13:39:23;;;;;;;6.55;1.10;;;;;;;;;;5053269;28;20041;-73
2024/03/04 13:42:28;;;;;;;2.33;1.20;;;;;;;;;;5053172;28;20045;-71
2024/03/04 13:45:33;;;;;;;4.72;1.10;;;;;;;;;;5052550;28;20418;-70
2024/03/04 13:48:37;;;;;;;5.60;1.02;;;;;;;;;;5052241;28;20044;-72
2024/03/04 13:51:41;;;;;;;2.83;1.52;;;;;;;;;;5053230;28;20049;-73
2024/03/04 13:54:47;;;;;;;4.47;1.90;;;15.10;92.20;;;;;;5053306;28;20037;-73
2024/03/04 13:57:52;;;;;;;13.32;3.45;;;;;;;;;;5057838;28;20048;-72
2024/03/04 14:00:56;;;;;;;7.57;1.40;;;;;;;;;;5057203;28;20067;-72
2024/03/04 14:04:01;;;;;;;2.15;0.70;;;;;;;;;;5057065;28;20037;-71
2024/03/04 14:07:06;;;;;;;3.28;1.20;;;;;;;;;;5055067;28;20040;-74
2024/03/04 14:10:11;;;;;;;2.28;0.90;;;;;;;;;;5054032;28;20037;-74
2024/03/04 14:13:15;;;;;;;5.85;1.13;;;;;;;;;;5042379;28;20044;-70
2024/03/04 14:16:21;;;;;;;4.28;0.82;;;;;;;;;;5056227;28;20037;-73
2024/03/04 14:19:27;;;;;;;5.10;1.05;;;;;;;;;;5060023;28;20045;-75
2024/03/04 14:22:34;;;;;;;2.72;0.93;;;15.80;90.80;;;;;;5059407;28;20045;-74
2024/03/04 14:25:39;;;;;;;3.05;1.15;;;;;;;;;;5058212;28;20047;-76
2024/03/04 14:28:44;;;;;;;1.83;0.85;;;16.80;90.30;;;;;;5057059;28;20037;-71
2024/03/04 14:31:51;;;;;;;1.45;0.73;;;17.40;88.30;;;;;;5054619;28;20047;-73
2024/03/04 14:34:57;;;;;;;6.85;1.42;;;;;;;;;;5052850;28;20052;-71
2024/03/04 14:38:03;;;;;;;5.63;2.58;;;;;;;;;;5052987;28;20037;-71
2024/03/04 14:41:08;;;;;;;9.07;2.58;;;15.10;93.20;;;;;;5055323;28;20041;-70
2024/03/04 14:44:13;;;;;;;5.57;1.88;;;;;;;;;;5052293;28;20511;-71
2024/03/04 14:47:18;;;;;;;3.03;1.80;;;;;;;;;;5053349;28;20040;-68
2024/03/04 14:50:23;;;;;;;2.97;1.45;;;;;;;;;;5052547;28;20049;-73
2024/03/04 14:53:27;;;;;;;4.95;1.30;;;;;;;;;;5052572;28;20045;-74
2024/03/04 14:56:31;;;;;;;4.65;2.20;;;;;;;;;;5052636;28;20041;-73
2024/03/04 14:59:36;;;;;;;6.32;1.75;;;;;;;;;;5051811;28;20037;-73
2024/03/04 15:02:40;;;;;;;6.13;2.05;;;;;;;;;;5053497;28;20489;-74
2024/03/04 15:05:45;;;;;;;3.58;1.83;;;;;;;;;;5053806;28;20041;-74
2024/03/04 15:08:50;;;;;;;9.18;2.22;;;;;;;;;;5053262;28;20037;-74
2024/03/04 15:11:55;;;;;;;11.30;2.60;;;;;;;;;;5052554;28;20382;-73
2024/03/04 15:14:59;;;;;;;7.63;2.42;;;;;;;;;;5051013;28;20040;-74
2024/03/04 15:18:04;;;;;;;5.13;2.75;;;;;;;;;;5052402;28;20036;-75
2024/03/04 15:21:09;;;;;;;6.85;3.22;;;;;;;;;;5050903;28;20060;-74
2024/03/04 15:24:13;;;;;;;8.60;3.22;;;;;;;;;;5051013;28;20390;-71
2024/03/04 15:27:17;;;;;;;8.00;3.15;;;;;;;;;;5043624;28;20037;-76
2024/03/04 15:30:22;;;;;;;9.05;3.88;;;;;;;;;;5055966;28;20037;-74
2024/03/04 15:33:45;;;;;;;7.55;3.53;;;13.90;94.50;;;;;;5057401;28;20041;-74
2024/03/04 15:36:50;;;;;;;8.45;3.10;;;;;;;;;;5054795;28;20048;-78
2024/03/04 15:39:54;;;;;;;10.25;3.30;;;;;;;;;;5055024;28;20445;-74
2024/03/04 15:43:03;;;;;;;7.38;3.70;;;13.90;94.40;;;;;;5055747;28;20373;-73
2024/03/04 15:46:07;;;;;;;9.25;3.42;;;;;;;;;;5055473;28;20040;-72
2024/03/04 15:49:12;;;;;;;6.97;3.10;;;;;;;;;;5054970;28;20602;-75
2024/03/04 15:52:16;;;;;;;6.57;3.08;;;;;;;;;;5054247;28;20358;-72
2024/03/04 15:55:21;;;;;;;10.00;3.63;;;;;;;;;;5054658;28;20045;-72
2024/03/04 15:58:26;;;;;;;6.07;3.38;;;;;;;;;;5054002;28;20044;-70
2024/03/04 16:01:33;;;;;;;8.27;3.50;;;;;;;;;;5054847;28;20517;-72
2024/03/04 16:04:39;;;;;;;9.88;3.40;;;;;;;;;;5055392;28;20168;-73
2024/03/04 16:07:44;;;;;;;9.60;3.90;;;;;;;;;;5056215;28;20040;-74
2024/03/04 16:10:49;;;;;;;6.72;3.47;;;;;;;;;;5055396;28;20049;-72
2024/03/04 16:13:54;;;;;;;8.00;3.30;;;;;;;;;;5054875;28;20041;-74
2024/03/04 16:16:58;;;;;;;9.48;4.07;;;;;;;;;;5054883;28;20630;-70
2024/03/04 16:20:16;;;;;;;6.55;2.92;;;;;;;;;;5055496;28;20041;-73
2024/03/04 16:23:21;;;;;;;7.72;3.00;;;;;;;;;;5042706;28;20025;-70
2024/03/04 16:26:25;;;;;;;7.40;3.42;;;;;;;;;;5054280;28;20033;-72
2024/03/04 16:29:30;;;;;;;8.00;3.38;;;;;;;;;;5054891;28;20028;-71
2024/03/04 16:32:34;;;;;;;7.03;3.53;;;;;;;;;;5054405;28;20049;-73
2024/03/04 16:35:39;;;;;;;12.98;3.88;;;13.50;94.90;;;;;;5042907;28;20033;-72
2024/03/04 16:38:44;;;;;;;9.02;3.45;;;;;;;;;;5052221;28;20399;-69
2024/03/04 16:41:50;;;;;;;11.02;4.05;;;13.40;94.90;;;;;;5052775;28;20614;-72
2024/03/04 16:44:55;;;;;;;7.88;4.03;;;;;;;;;;5054893;28;20056;-72
2024/03/04 16:47:59;;;;;;;9.18;4.68;;;;;;;;;;5055197;28;20029;-72
2024/03/04 16:51:05;;;;;;;8.55;4.63;;;;;;;;;;5053609;28;20049;-75
2024/03/04 16:54:09;;;;;;;10.45;5.45;;;;;;;;;;5054169;28;20045;-73